sensor_id;sensor_type;location;lat;lon;timestamp;pressure;altitude;pressure_sealevel;temperature;humidity
55070;BME280;40967;52.070;8.596;2023-05-14T00:00:13;100844.34;;;12.54;66.17
55070;BME280;40967;52.070;8.596;2023-05-14T00:02:39;100842.69;;;12.53;66.50
55070;BME280;40967;52.070;8.596;2023-05-14T00:05:04;100841.06;;;12.52;66.79
55070;BME280;40967;52.070;8.596;2023-05-14T00:07:30;100840.25;;;12.51;66.83
55070;BME280;40967;52.070;8.596;2023-05-14T00:09:56;100845.69;;;12.51;66.77
55070;BME280;40967;52.070;8.596;2023-05-14T00:12:22;100831.56;;;12.39;67.79
55070;BME280;40967;52.070;8.596;2023-05-14T00:14:47;100838.09;;;12.23;68.62
55070;BME280;40967;52.070;8.596;2023-05-14T00:17:15;100836.75;;;12.16;68.64
55070;BME280;40967;52.070;8.596;2023-05-14T00:19:40;100829.13;;;12.13;68.29
55070;BME280;40967;52.070;8.596;2023-05-14T00:22:07;100827.78;;;12.10;68.41
55070;BME280;40967;52.070;8.596;2023-05-14T00:24:33;100835.38;;;12.13;68.21
55070;BME280;40967;52.070;8.596;2023-05-14T00:26:59;100823.69;;;12.13;68.15
55070;BME280;40967;52.070;8.596;2023-05-14T00:29:24;100831.31;;;12.11;68.58
55070;BME280;40967;52.070;8.596;2023-05-14T00:31:49;100838.38;;;12.12;68.57
55070;BME280;40967;52.070;8.596;2023-05-14T00:34:15;100832.38;;;12.05;68.81
55070;BME280;40967;52.070;8.596;2023-05-14T00:36:40;100834.56;;;11.83;70.96
55070;BME280;40967;52.070;8.596;2023-05-14T00:39:06;100825.56;;;11.72;70.92
55070;BME280;40967;52.070;8.596;2023-05-14T00:41:31;100821.19;;;11.66;71.27
55070;BME280;40967;52.070;8.596;2023-05-14T00:43:57;100823.63;;;11.68;71.38
55070;BME280;40967;52.070;8.596;2023-05-14T00:46:22;100822.28;;;11.70;71.17
55070;BME280;40967;52.070;8.596;2023-05-14T00:48:47;100812.25;;;11.71;71.09
55070;BME280;40967;52.070;8.596;2023-05-14T00:51:13;100810.59;;;11.65;71.73
55070;BME280;40967;52.070;8.596;2023-05-14T00:53:40;100807.56;;;11.56;72.30
55070;BME280;40967;52.070;8.596;2023-05-14T00:56:05;100809.72;;;11.49;72.52
55070;BME280;40967;52.070;8.596;2023-05-14T00:58:32;100812.72;;;11.48;72.29
55070;BME280;40967;52.070;8.596;2023-05-14T01:00:57;100808.38;;;11.52;71.75
55070;BME280;40967;52.070;8.596;2023-05-14T01:03:23;100799.13;;;11.53;71.63
55070;BME280;40967;52.070;8.596;2023-05-14T01:11:24;100798.84;;;11.49;71.12
55070;BME280;40967;52.070;8.596;2023-05-14T01:14:12;100794.25;;;11.50;71.30
55070;BME280;40967;52.070;8.596;2023-05-14T01:16:39;100796.41;;;11.48;71.40
55070;BME280;40967;52.070;8.596;2023-05-14T01:19:09;100796.41;;;11.48;71.51
55070;BME280;40967;52.070;8.596;2023-05-14T01:21:43;100798.03;;;11.48;71.72
55070;BME280;40967;52.070;8.596;2023-05-14T01:24:09;100799.41;;;11.46;71.65
55070;BME280;40967;52.070;8.596;2023-05-14T01:26:35;100795.28;;;11.43;71.82
55070;BME280;40967;52.070;8.596;2023-05-14T01:29:16;100786.59;;;11.41;71.70
55070;BME280;40967;52.070;8.596;2023-05-14T01:31:44;100793.13;;;11.40;71.73
55070;BME280;40967;52.070;8.596;2023-05-14T01:34:12;100791.75;;;11.38;71.76
55070;BME280;40967;52.070;8.596;2023-05-14T01:36:40;100783.06;;;11.36;72.02
55070;BME280;40967;52.070;8.596;2023-05-14T01:39:07;100786.84;;;11.35;71.90
55070;BME280;40967;52.070;8.596;2023-05-14T01:41:36;100783.59;;;11.33;71.95
55070;BME280;40967;52.070;8.596;2023-05-14T01:44:03;100784.13;;;11.30;71.91
55070;BME280;40967;52.070;8.596;2023-05-14T01:46:32;100777.59;;;11.26;71.93
55070;BME280;40967;52.070;8.596;2023-05-14T01:48:58;100784.38;;;11.23;72.26
55070;BME280;40967;52.070;8.596;2023-05-14T01:51:24;100777.03;;;11.19;72.40
55070;BME280;40967;52.070;8.596;2023-05-14T01:53:50;100780.00;;;11.17;72.43
55070;BME280;40967;52.070;8.596;2023-05-14T01:56:16;100774.56;;;11.17;72.21
55070;BME280;40967;52.070;8.596;2023-05-14T01:58:41;100763.16;;;11.10;72.41
55070;BME280;40967;52.070;8.596;2023-05-14T02:01:07;100765.84;;;11.00;72.98
55070;BME280;40967;52.070;8.596;2023-05-14T02:03:32;100768.28;;;10.97;72.87
55070;BME280;40967;52.070;8.596;2023-05-14T02:05:58;100770.69;;;10.93;72.91
55070;BME280;40967;52.070;8.596;2023-05-14T02:08:23;100770.97;;;10.92;73.16
55070;BME280;40967;52.070;8.596;2023-05-14T02:10:49;100758.19;;;10.87;73.07
55070;BME280;40967;52.070;8.596;2023-05-14T02:13:14;100757.91;;;10.84;73.42
55070;BME280;40967;52.070;8.596;2023-05-14T02:15:39;100755.69;;;10.76;73.44
55070;BME280;40967;52.070;8.596;2023-05-14T02:18:05;100763.03;;;10.75;73.84
55070;BME280;40967;52.070;8.596;2023-05-14T02:20:30;100768.16;;;10.67;74.67
55070;BME280;40967;52.070;8.596;2023-05-14T02:22:56;100770.03;;;10.61;75.16
55070;BME280;40967;52.070;8.596;2023-05-14T02:25:21;100783.06;;;10.64;75.40
55070;BME280;40967;52.070;8.596;2023-05-14T02:27:46;100785.50;;;10.66;75.04
55070;BME280;40967;52.070;8.596;2023-05-14T02:30:12;100780.06;;;10.66;75.04
55070;BME280;40967;52.070;8.596;2023-05-14T02:32:37;100786.06;;;10.68;75.53
55070;BME280;40967;52.070;8.596;2023-05-14T02:35:03;100785.78;;;10.69;75.64
55070;BME280;40967;52.070;8.596;2023-05-14T02:37:28;100773.31;;;10.68;75.88
55070;BME280;40967;52.070;8.596;2023-05-14T02:39:54;100777.63;;;10.64;76.11
55070;BME280;40967;52.070;8.596;2023-05-14T02:42:20;100780.34;;;10.64;76.64
55070;BME280;40967;52.070;8.596;2023-05-14T02:44:45;100772.72;;;10.56;76.84
55070;BME280;40967;52.070;8.596;2023-05-14T02:47:11;100778.13;;;10.56;77.03
55070;BME280;40967;52.070;8.596;2023-05-14T02:49:36;100776.47;;;10.55;76.98
55070;BME280;40967;52.070;8.596;2023-05-14T02:52:01;100770.00;;;10.56;76.73
55070;BME280;40967;52.070;8.596;2023-05-14T02:54:27;100772.94;;;10.55;76.31
55070;BME280;40967;52.070;8.596;2023-05-14T02:56:53;100774.31;;;10.52;76.31
55070;BME280;40967;52.070;8.596;2023-05-14T02:59:18;100769.72;;;10.53;76.19
55070;BME280;40967;52.070;8.596;2023-05-14T03:01:43;100766.44;;;10.51;76.08
55070;BME280;40967;52.070;8.596;2023-05-14T03:04:12;100763.72;;;10.51;76.10
55070;BME280;40967;52.070;8.596;2023-05-14T03:06:37;100762.91;;;10.50;76.15
55070;BME280;40967;52.070;8.596;2023-05-14T03:09:02;100770.47;;;10.48;75.81
55070;BME280;40967;52.070;8.596;2023-05-14T03:11:28;100767.22;;;10.46;75.69
55070;BME280;40967;52.070;8.596;2023-05-14T03:13:53;100760.13;;;10.40;75.87
55070;BME280;40967;52.070;8.596;2023-05-14T03:16:19;100761.75;;;10.41;75.96
55070;BME280;40967;52.070;8.596;2023-05-14T03:18:44;100764.97;;;10.33;76.28
55070;BME280;40967;52.070;8.596;2023-05-14T03:21:10;100770.91;;;10.25;77.02
55070;BME280;40967;52.070;8.596;2023-05-14T03:23:35;100762.19;;;10.23;76.79
55070;BME280;40967;52.070;8.596;2023-05-14T03:26:01;100768.13;;;10.20;76.59
55070;BME280;40967;52.070;8.596;2023-05-14T03:28:26;100756.97;;;10.16;76.62
55070;BME280;40967;52.070;8.596;2023-05-14T03:30:52;100757.25;;;10.15;76.49
55070;BME280;40967;52.070;8.596;2023-05-14T03:33:17;100761.31;;;10.12;76.62
55070;BME280;40967;52.070;8.596;2023-05-14T03:35:42;100760.41;;;10.07;76.80
55070;BME280;40967;52.070;8.596;2023-05-14T03:38:08;100764.97;;;10.01;76.84
55070;BME280;40967;52.070;8.596;2023-05-14T03:40:33;100767.97;;;10.00;76.83
55070;BME280;40967;52.070;8.596;2023-05-14T03:42:59;100769.56;;;10.01;76.99
55070;BME280;40967;52.070;8.596;2023-05-14T03:45:24;100762.53;;;10.00;76.58
55070;BME280;40967;52.070;8.596;2023-05-14T03:47:51;100753.78;;;9.88;76.63
55070;BME280;40967;52.070;8.596;2023-05-14T03:50:16;100768.97;;;9.94;76.63
55070;BME280;40967;52.070;8.596;2023-05-14T03:52:41;100760.81;;;9.89;76.81
55070;BME280;40967;52.070;8.596;2023-05-14T03:55:08;100758.88;;;9.84;77.29
55070;BME280;40967;52.070;8.596;2023-05-14T03:57:37;100762.38;;;9.80;77.14
55070;BME280;40967;52.070;8.596;2023-05-14T04:00:03;100759.91;;;9.78;77.28
55070;BME280;40967;52.070;8.596;2023-05-14T04:02:29;100751.47;;;9.75;77.71
55070;BME280;40967;52.070;8.596;2023-05-14T04:04:54;100757.41;;;9.72;77.63
55070;BME280;40967;52.070;8.596;2023-05-14T04:07:19;100755.22;;;9.69;78.10
55070;BME280;40967;52.070;8.596;2023-05-14T04:09:45;100759.06;;;9.73;77.88
55070;BME280;40967;52.070;8.596;2023-05-14T04:12:10;100763.13;;;9.75;77.73
55070;BME280;40967;52.070;8.596;2023-05-14T04:14:36;100763.44;;;9.79;77.11
55070;BME280;40967;52.070;8.596;2023-05-14T04:17:01;100761.03;;;9.82;77.04
55070;BME280;40967;52.070;8.596;2023-05-14T04:19:26;100754.78;;;9.82;76.96
55070;BME280;40967;52.070;8.596;2023-05-14T04:21:52;100765.41;;;9.83;76.88
55070;BME280;40967;52.070;8.596;2023-05-14T04:24:17;100758.06;;;9.84;76.89
55070;BME280;40967;52.070;8.596;2023-05-14T04:26:43;100754.28;;;9.85;77.02
55070;BME280;40967;52.070;8.596;2023-05-14T04:29:08;100754.28;;;9.85;76.85
55070;BME280;40967;52.070;8.596;2023-05-14T04:31:33;100757.28;;;9.83;77.33
55070;BME280;40967;52.070;8.596;2023-05-14T04:33:59;100751.03;;;9.83;77.25
55070;BME280;40967;52.070;8.596;2023-05-14T04:36:24;100756.75;;;9.86;77.13
55070;BME280;40967;52.070;8.596;2023-05-14T04:38:50;100756.75;;;9.86;76.96
55070;BME280;40967;52.070;8.596;2023-05-14T04:41:15;100759.50;;;9.91;77.27
55070;BME280;40967;52.070;8.596;2023-05-14T04:43:41;100747.81;;;9.91;77.26
55070;BME280;40967;52.070;8.596;2023-05-14T04:46:06;100749.47;;;9.92;77.07
55070;BME280;40967;52.070;8.596;2023-05-14T04:48:31;100753.53;;;9.94;77.35
55070;BME280;40967;52.070;8.596;2023-05-14T04:50:57;100751.91;;;9.93;77.43
55070;BME280;40967;52.070;8.596;2023-05-14T04:53:22;100759.78;;;9.95;78.23
55070;BME280;40967;52.070;8.596;2023-05-14T04:55:48;100748.38;;;9.93;78.43
55070;BME280;40967;52.070;8.596;2023-05-14T04:58:13;100751.97;;;9.98;78.19
55070;BME280;40967;52.070;8.596;2023-05-14T05:00:39;100751.69;;;10.00;78.41
55070;BME280;40967;52.070;8.596;2023-05-14T05:03:05;100759.84;;;10.05;78.54
55070;BME280;40967;52.070;8.596;2023-05-14T05:05:30;100761.25;;;10.07;78.69
55070;BME280;40967;52.070;8.596;2023-05-14T05:07:55;100764.81;;;10.13;78.77
55070;BME280;40967;52.070;8.596;2023-05-14T05:10:21;100764.88;;;10.18;78.55
55070;BME280;40967;52.070;8.596;2023-05-14T05:12:46;100764.38;;;10.26;78.64
55070;BME280;40967;52.070;8.596;2023-05-14T05:15:12;100767.69;;;10.33;78.68
55070;BME280;40967;52.070;8.596;2023-05-14T05:17:37;100749.28;;;10.40;78.87
55070;BME280;40967;52.070;8.596;2023-05-14T05:20:03;100747.16;;;10.47;79.93
55070;BME280;40967;52.070;8.596;2023-05-14T05:22:30;100751.25;;;10.55;80.27
55070;BME280;40967;52.070;8.596;2023-05-14T05:24:55;100753.22;;;10.64;80.12
55070;BME280;40967;52.070;8.596;2023-05-14T05:27:21;100747.25;;;10.72;79.99
55070;BME280;40967;52.070;8.596;2023-05-14T05:29:46;100760.34;;;10.80;80.23
55070;BME280;40967;52.070;8.596;2023-05-14T05:32:12;100760.38;;;10.90;80.36
55070;BME280;40967;52.070;8.596;2023-05-14T05:34:37;100759.84;;;10.98;80.37
55070;BME280;40967;52.070;8.596;2023-05-14T05:37:03;100760.97;;;11.07;80.28
55070;BME280;40967;52.070;8.596;2023-05-14T05:39:32;100761.00;;;11.17;80.22
55070;BME280;40967;52.070;8.596;2023-05-14T05:41:59;100749.63;;;11.25;79.58
55070;BME280;40967;52.070;8.596;2023-05-14T05:44:26;100755.63;;;11.32;79.49
55070;BME280;40967;52.070;8.596;2023-05-14T05:46:52;100756.97;;;11.40;79.06
55070;BME280;40967;52.070;8.596;2023-05-14T05:49:21;100759.97;;;11.48;78.92
55070;BME280;40967;52.070;8.596;2023-05-14T05:51:46;100757.31;;;11.54;79.22
55070;BME280;40967;52.070;8.596;2023-05-14T05:54:14;100757.06;;;11.65;78.85
55070;BME280;40967;52.070;8.596;2023-05-14T05:56:39;100758.16;;;11.74;78.70
55070;BME280;40967;52.070;8.596;2023-05-14T05:59:05;100758.97;;;11.85;78.71
55070;BME280;40967;52.070;8.596;2023-05-14T06:01:31;100758.16;;;11.94;78.26
55070;BME280;40967;52.070;8.596;2023-05-14T06:03:56;100758.13;;;12.04;78.58
55070;BME280;40967;52.070;8.596;2023-05-14T06:06:21;100766.03;;;12.16;78.47
55070;BME280;40967;52.070;8.596;2023-05-14T06:08:47;100762.72;;;12.29;78.86
55070;BME280;40967;52.070;8.596;2023-05-14T06:11:12;100771.41;;;12.46;79.34
55070;BME280;40967;52.070;8.596;2023-05-14T06:13:38;100755.84;;;12.62;79.22
55070;BME280;40967;52.070;8.596;2023-05-14T06:16:03;100756.06;;;12.85;78.95
55070;BME280;40967;52.070;8.596;2023-05-14T06:18:29;100765.81;;;13.06;78.61
55070;BME280;40967;52.070;8.596;2023-05-14T06:20:54;100753.94;;;13.31;78.38
55070;BME280;40967;52.070;8.596;2023-05-14T06:23:21;100758.91;;;13.62;78.02
55070;BME280;40967;52.070;8.596;2023-05-14T06:25:48;100753.47;;;13.96;77.29
55070;BME280;40967;52.070;8.596;2023-05-14T06:28:14;100750.44;;;14.31;76.35
55070;BME280;40967;52.070;8.596;2023-05-14T06:30:39;100751.69;;;14.67;74.53
55070;BME280;40967;52.070;8.596;2023-05-14T06:33:05;100764.69;;;14.99;73.57
55070;BME280;40967;52.070;8.596;2023-05-14T06:35:31;100759.31;;;15.31;72.41
55070;BME280;40967;52.070;8.596;2023-05-14T06:37:56;100762.47;;;15.62;71.35
55070;BME280;40967;52.070;8.596;2023-05-14T06:40:22;100764.09;;;15.95;69.84
55070;BME280;40967;52.070;8.596;2023-05-14T06:42:48;100754.88;;;16.23;68.02
55070;BME280;40967;52.070;8.596;2023-05-14T06:45:13;100759.22;;;16.56;67.58
55070;BME280;40967;52.070;8.596;2023-05-14T06:47:39;100750.59;;;16.90;66.29
55070;BME280;40967;52.070;8.596;2023-05-14T06:50:05;100760.31;;;17.23;64.80
55070;BME280;40967;52.070;8.596;2023-05-14T06:52:34;100753.16;;;17.49;63.07
55070;BME280;40967;52.070;8.596;2023-05-14T06:55:02;100752.28;;;17.62;62.09
55070;BME280;40967;52.070;8.596;2023-05-14T06:57:28;100760.84;;;17.83;61.84
55070;BME280;40967;52.070;8.596;2023-05-14T06:59:53;100752.25;;;17.98;60.90
55070;BME280;40967;52.070;8.596;2023-05-14T07:02:19;100742.81;;;18.12;60.18
55070;BME280;40967;52.070;8.596;2023-05-14T07:04:44;100739.78;;;18.23;59.43
55070;BME280;40967;52.070;8.596;2023-05-14T07:07:10;100741.28;;;18.29;58.85
55070;BME280;40967;52.070;8.596;2023-05-14T07:09:39;100737.41;;;18.30;58.43
55070;BME280;40967;52.070;8.596;2023-05-14T07:12:06;100736.44;;;18.26;57.61
55070;BME280;40967;52.070;8.596;2023-05-14T07:14:35;100739.31;;;18.21;57.23
55070;BME280;40967;52.070;8.596;2023-05-14T07:17:00;100737.31;;;18.12;56.99
55070;BME280;40967;52.070;8.596;2023-05-14T07:19:25;100732.78;;;18.08;57.08
55070;BME280;40967;52.070;8.596;2023-05-14T07:21:53;100738.41;;;18.03;57.02
55070;BME280;40967;52.070;8.596;2023-05-14T07:24:18;100726.72;;;17.97;57.19
55070;BME280;40967;52.070;8.596;2023-05-14T07:26:43;100729.28;;;17.94;57.11
55070;BME280;40967;52.070;8.596;2023-05-14T07:29:09;100724.63;;;17.94;57.08
55070;BME280;40967;52.070;8.596;2023-05-14T07:31:34;100726.22;;;17.95;57.56
55070;BME280;40967;52.070;8.596;2023-05-14T07:34:00;100726.09;;;18.00;57.69
55070;BME280;40967;52.070;8.596;2023-05-14T07:36:25;100725.97;;;18.05;57.66
55070;BME280;40967;52.070;8.596;2023-05-14T07:38:51;100725.53;;;18.12;57.54
55070;BME280;40967;52.070;8.596;2023-05-14T07:41:17;100712.47;;;18.17;57.90
55070;BME280;40967;52.070;8.596;2023-05-14T07:43:42;100713.97;;;18.24;57.92
55070;BME280;40967;52.070;8.596;2023-05-14T07:46:07;100712.88;;;18.33;58.13
55070;BME280;40967;52.070;8.596;2023-05-14T07:48:33;100710.34;;;18.45;57.60
55070;BME280;40967;52.070;8.596;2023-05-14T07:50:58;100712.72;;;18.60;57.60
55070;BME280;40967;52.070;8.596;2023-05-14T07:53:24;100711.50;;;18.83;57.94
55070;BME280;40967;52.070;8.596;2023-05-14T07:55:50;100713.81;;;19.15;57.30
55070;BME280;40967;52.070;8.596;2023-05-14T07:58:16;100702.69;;;19.46;56.64
55070;BME280;40967;52.070;8.596;2023-05-14T08:00:41;100708.66;;;19.74;56.20
55070;BME280;40967;52.070;8.596;2023-05-14T08:03:06;100700.38;;;19.99;55.12
55070;BME280;40967;52.070;8.596;2023-05-14T08:05:32;100700.19;;;20.21;54.08
55070;BME280;40967;52.070;8.596;2023-05-14T08:07:57;100690.25;;;20.38;52.89
55070;BME280;40967;52.070;8.596;2023-05-14T08:10:23;100698.06;;;20.65;52.64
55070;BME280;40967;52.070;8.596;2023-05-14T08:12:48;100694.00;;;20.91;51.88
55070;BME280;40967;52.070;8.596;2023-05-14T08:15:13;100700.22;;;21.17;50.95
55070;BME280;40967;52.070;8.596;2023-05-14T08:17:39;100701.50;;;21.40;50.40
55070;BME280;40967;52.070;8.596;2023-05-14T08:20:05;100704.44;;;21.56;49.33
55070;BME280;40967;52.070;8.596;2023-05-14T08:22:31;100700.47;;;21.66;48.10
55070;BME280;40967;52.070;8.596;2023-05-14T08:24:56;100703.59;;;21.76;47.60
55070;BME280;40967;52.070;8.596;2023-05-14T08:27:22;100703.22;;;21.86;47.24
55070;BME280;40967;52.070;8.596;2023-05-14T08:29:48;100704.19;;;22.02;46.61
55070;BME280;40967;52.070;8.596;2023-05-14T08:32:13;100703.31;;;22.22;45.79
55070;BME280;40967;52.070;8.596;2023-05-14T08:34:38;100698.84;;;22.42;44.75
55070;BME280;40967;52.070;8.596;2023-05-14T08:37:04;100698.88;;;22.54;44.14
55070;BME280;40967;52.070;8.596;2023-05-14T08:39:29;100695.47;;;22.69;43.05
55070;BME280;40967;52.070;8.596;2023-05-14T08:41:56;100691.75;;;22.89;42.77
55070;BME280;40967;52.070;8.596;2023-05-14T08:44:32;100681.22;;;23.07;42.85
55070;BME280;40967;52.070;8.596;2023-05-14T08:47:00;100679.00;;;23.24;42.15
55070;BME280;40967;52.070;8.596;2023-05-14T08:49:43;100680.75;;;23.29;42.03
55070;BME280;40967;52.070;8.596;2023-05-14T08:52:10;100681.38;;;23.50;41.75
55070;BME280;40967;52.070;8.596;2023-05-14T08:54:37;100679.94;;;23.68;41.00
55070;BME280;40967;52.070;8.596;2023-05-14T08:57:03;100687.56;;;23.87;40.58
55070;BME280;40967;52.070;8.596;2023-05-14T08:59:29;100680.22;;;24.06;40.20
55070;BME280;40967;52.070;8.596;2023-05-14T09:01:55;100679.16;;;24.26;39.76
55070;BME280;40967;52.070;8.596;2023-05-14T09:04:23;100681.47;;;24.40;39.82
55070;BME280;40967;52.070;8.596;2023-05-14T09:06:51;100677.00;;;24.51;38.94
55070;BME280;40967;52.070;8.596;2023-05-14T09:09:18;100675.16;;;24.71;38.83
55070;BME280;40967;52.070;8.596;2023-05-14T09:11:50;100681.34;;;24.99;38.77
55070;BME280;40967;52.070;8.596;2023-05-14T09:14:16;100675.28;;;25.28;38.52
55070;BME280;40967;52.070;8.596;2023-05-14T09:16:44;100670.47;;;25.44;37.74
55070;BME280;40967;52.070;8.596;2023-05-14T09:19:11;100673.84;;;25.53;37.51
55070;BME280;40967;52.070;8.596;2023-05-14T09:21:37;100669.75;;;25.66;37.59
55070;BME280;40967;52.070;8.596;2023-05-14T09:24:05;100670.44;;;25.82;37.17
55070;BME280;40967;52.070;8.596;2023-05-14T09:26:34;100667.81;;;26.08;36.76
55070;BME280;40967;52.070;8.596;2023-05-14T09:29:01;100666.84;;;26.20;36.49
55070;BME280;40967;52.070;8.596;2023-05-14T09:31:31;100662.75;;;26.36;36.24
55070;BME280;40967;52.070;8.596;2023-05-14T09:33:57;100663.31;;;26.45;36.07
55070;BME280;40967;52.070;8.596;2023-05-14T09:36:23;100648.69;;;26.52;35.93
55070;BME280;40967;52.070;8.596;2023-05-14T09:38:55;100654.56;;;26.69;35.53
55070;BME280;40967;52.070;8.596;2023-05-14T09:41:20;100645.56;;;26.79;35.23
55070;BME280;40967;52.070;8.596;2023-05-14T09:43:47;100648.72;;;27.04;35.24
55070;BME280;40967;52.070;8.596;2023-05-14T09:46:12;100639.31;;;27.12;34.61
55070;BME280;40967;52.070;8.596;2023-05-14T09:48:41;100647.56;;;27.05;34.38
55070;BME280;40967;52.070;8.596;2023-05-14T09:51:08;100636.25;;;26.95;33.94
55070;BME280;40967;52.070;8.596;2023-05-14T09:53:34;100640.72;;;26.73;34.07
55070;BME280;40967;52.070;8.596;2023-05-14T09:56:00;100651.97;;;26.57;34.65
55070;BME280;40967;52.070;8.596;2023-05-14T09:58:25;100644.06;;;26.37;34.57
55070;BME280;40967;52.070;8.596;2023-05-14T10:00:51;100647.75;;;26.18;35.26
55070;BME280;40967;52.070;8.596;2023-05-14T10:03:19;100643.91;;;26.04;35.53
55070;BME280;40967;52.070;8.596;2023-05-14T10:05:48;100640.81;;;25.90;35.89
55070;BME280;40967;52.070;8.596;2023-05-14T10:08:23;100646.09;;;25.75;36.01
55070;BME280;40967;52.070;8.596;2023-05-14T10:10:52;100639.06;;;25.59;36.32
55070;BME280;40967;52.070;8.596;2023-05-14T10:13:23;100640.56;;;25.37;36.66
55070;BME280;40967;52.070;8.596;2023-05-14T10:15:56;100639.53;;;25.26;37.13
55070;BME280;40967;52.070;8.596;2023-05-14T10:18:30;100632.72;;;25.24;37.18
55070;BME280;40967;52.070;8.596;2023-05-14T10:21:03;100630.19;;;25.34;36.84
55070;BME280;40967;52.070;8.596;2023-05-14T10:23:29;100633.72;;;25.50;36.80
55070;BME280;40967;52.070;8.596;2023-05-14T10:25:59;100628.94;;;25.70;36.85
55070;BME280;40967;52.070;8.596;2023-05-14T10:28:25;100626.97;;;25.93;36.47
55070;BME280;40967;52.070;8.596;2023-05-14T10:30:50;100621.13;;;25.98;35.71
55070;BME280;40967;52.070;8.596;2023-05-14T10:33:16;100617.88;;;26.15;35.17
55070;BME280;40967;52.070;8.596;2023-05-14T10:36:06;100608.63;;;26.56;34.63
55070;BME280;40967;52.070;8.596;2023-05-14T10:38:34;100608.69;;;26.86;34.03
55070;BME280;40967;52.070;8.596;2023-05-14T10:41:06;100601.97;;;27.20;34.03
55070;BME280;40967;52.070;8.596;2023-05-14T10:43:39;100600.75;;;27.47;33.26
55070;BME280;40967;52.070;8.596;2023-05-14T10:46:06;100605.34;;;27.66;32.63
55070;BME280;40967;52.070;8.596;2023-05-14T10:48:33;100596.00;;;27.88;32.13
55070;BME280;40967;52.070;8.596;2023-05-14T10:50:59;100600.94;;;28.02;31.44
55070;BME280;40967;52.070;8.596;2023-05-14T10:53:36;100593.53;;;28.20;31.46
55070;BME280;40967;52.070;8.596;2023-05-14T10:56:09;100587.44;;;28.51;31.15
55070;BME280;40967;52.070;8.596;2023-05-14T10:58:44;100594.34;;;28.71;30.65
55070;BME280;40967;52.070;8.596;2023-05-14T11:01:11;100599.59;;;28.86;30.03
55070;BME280;40967;52.070;8.596;2023-05-14T11:03:40;100593.28;;;29.00;30.09
55070;BME280;40967;52.070;8.596;2023-05-14T11:06:06;100585.34;;;29.09;29.89
55070;BME280;40967;52.070;8.596;2023-05-14T11:08:32;100592.63;;;29.14;29.80
55070;BME280;40967;52.070;8.596;2023-05-14T11:10:58;100583.91;;;29.33;30.01
55070;BME280;40967;52.070;8.596;2023-05-14T11:13:25;100581.56;;;29.56;29.78
55070;BME280;40967;52.070;8.596;2023-05-14T11:15:51;100582.41;;;29.67;29.31
55070;BME280;40967;52.070;8.596;2023-05-14T11:18:30;100577.25;;;29.79;29.02
55070;BME280;40967;52.070;8.596;2023-05-14T11:21:01;100576.88;;;29.88;29.11
55070;BME280;40967;52.070;8.596;2023-05-14T11:23:27;100572.88;;;29.96;28.53
55070;BME280;40967;52.070;8.596;2023-05-14T11:25:53;100569.28;;;29.88;28.21
55070;BME280;40967;52.070;8.596;2023-05-14T11:28:21;100562.06;;;29.91;28.13
55070;BME280;40967;52.070;8.596;2023-05-14T11:30:48;100560.91;;;29.95;27.79
55070;BME280;40967;52.070;8.596;2023-05-14T11:33:15;100566.09;;;29.97;27.79
55070;BME280;40967;52.070;8.596;2023-05-14T11:35:41;100562.50;;;30.03;27.45
55070;BME280;40967;52.070;8.596;2023-05-14T11:38:16;100563.66;;;30.17;27.56
55070;BME280;40967;52.070;8.596;2023-05-14T11:40:50;100547.31;;;30.29;27.78
55070;BME280;40967;52.070;8.596;2023-05-14T11:43:17;100558.47;;;29.87;27.55
55070;BME280;40967;52.070;8.596;2023-05-14T11:45:48;100557.50;;;29.20;28.54
55070;BME280;40967;52.070;8.596;2023-05-14T11:48:14;100547.09;;;29.17;28.95
55070;BME280;40967;52.070;8.596;2023-05-14T11:50:44;100551.97;;;29.37;28.37
55070;BME280;40967;52.070;8.596;2023-05-14T11:53:09;100558.41;;;29.55;28.72
55070;BME280;40967;52.070;8.596;2023-05-14T11:55:35;100550.78;;;29.52;28.59
55070;BME280;40967;52.070;8.596;2023-05-14T11:58:00;100549.59;;;29.43;28.80
55070;BME280;40967;52.070;8.596;2023-05-14T12:00:26;100549.50;;;29.15;28.76
55070;BME280;40967;52.070;8.596;2023-05-14T12:02:51;100544.59;;;28.94;28.72
55070;BME280;40967;52.070;8.596;2023-05-14T12:05:19;100549.25;;;28.72;29.35
55070;BME280;40967;52.070;8.596;2023-05-14T12:07:44;100545.16;;;28.52;29.60
55070;BME280;40967;52.070;8.596;2023-05-14T12:10:11;100543.47;;;28.41;30.08
55070;BME280;40967;52.070;8.596;2023-05-14T12:12:36;100537.72;;;28.16;30.06
55070;BME280;40967;52.070;8.596;2023-05-14T12:15:10;100535.31;;;27.71;30.89
55070;BME280;40967;52.070;8.596;2023-05-14T12:17:36;100535.13;;;27.53;31.52
55070;BME280;40967;52.070;8.596;2023-05-14T12:20:02;100530.69;;;27.49;31.81
55070;BME280;40967;52.070;8.596;2023-05-14T12:22:28;100526.31;;;27.48;31.79
55070;BME280;40967;52.070;8.596;2023-05-14T12:24:55;100521.88;;;27.43;31.48
55070;BME280;40967;52.070;8.596;2023-05-14T12:27:22;100517.41;;;27.35;31.49
55070;BME280;40967;52.070;8.596;2023-05-14T12:29:50;100518.19;;;27.32;31.98
55070;BME280;40967;52.070;8.596;2023-05-14T12:32:24;100516.97;;;27.33;32.15
55070;BME280;40967;52.070;8.596;2023-05-14T12:34:52;100520.66;;;27.41;32.14
55070;BME280;40967;52.070;8.596;2023-05-14T12:37:17;100517.88;;;27.41;32.36
55070;BME280;40967;52.070;8.596;2023-05-14T12:39:43;100516.72;;;27.45;32.45
55070;BME280;40967;52.070;8.596;2023-05-14T12:42:08;100521.22;;;27.57;32.16
55070;BME280;40967;52.070;8.596;2023-05-14T12:44:34;100506.53;;;27.63;32.24
55070;BME280;40967;52.070;8.596;2023-05-14T12:46:59;100511.03;;;27.75;31.91
55070;BME280;40967;52.070;8.596;2023-05-14T12:49:25;100496.78;;;27.83;31.98
55070;BME280;40967;52.070;8.596;2023-05-14T12:51:50;100499.56;;;27.87;31.99